createdAt,value
2023-03-11T00:04:02.864Z,95858.63
2023-03-11T00:09:05.196Z,95867.63
2023-03-11T00:14:07.193Z,95866.81
2023-03-11T00:19:10.651Z,95874.34
2023-03-11T00:24:12.436Z,95876.81
2023-03-11T00:29:14.070Z,95874.34
2023-03-11T00:34:16.252Z,95878.72
2023-03-11T00:39:18.022Z,95867.84
2023-03-11T00:44:19.740Z,95874.09
2023-03-11T00:49:21.614Z,95876.00
2023-03-11T00:54:23.771Z,95887.34
2023-03-11T00:59:25.598Z,95894.06
2023-03-11T01:04:27.344Z,95900.09
2023-03-11T01:09:29.217Z,95891.66
2023-03-11T01:14:30.917Z,95902.22
2023-03-11T01:19:32.684Z,95893.53
2023-03-11T01:24:34.346Z,95900.03
2023-03-11T01:29:36.297Z,95899.44
2023-03-11T01:34:38.831Z,95905.72
2023-03-11T01:39:40.593Z,95910.59
2023-03-11T01:44:42.539Z,95888.13
2023-03-11T01:49:44.397Z,95887.38
2023-03-11T01:54:46.310Z,95885.78
2023-03-11T01:59:51.912Z,95897.69
2023-03-11T02:04:54.751Z,95891.16
2023-03-11T02:09:59.140Z,95882.00
2023-03-11T02:15:02.040Z,95879.31
2023-03-11T02:20:12.556Z,95890.91
2023-03-11T02:25:24.587Z,95879.75
2023-03-11T02:30:27.787Z,95880.00
2023-03-11T02:35:31.478Z,95880.19
2023-03-11T02:41:01.710Z,95881.81
2023-03-11T02:46:06.842Z,95886.94
2023-03-11T02:51:08.817Z,95891.25
2023-03-11T02:56:11.864Z,95894.75
2023-03-11T03:01:14.179Z,95897.19
2023-03-11T03:06:19.333Z,95907.50
2023-03-11T03:11:21.094Z,95920.91
2023-03-11T03:16:23.575Z,95941.72
2023-03-11T03:21:25.447Z,95952.72
2023-03-11T03:26:28.197Z,95958.41
2023-03-11T03:31:30.252Z,95949.16
2023-03-11T03:36:33.124Z,95951.81
2023-03-11T03:41:38.199Z,95955.16
2023-03-11T03:46:41.672Z,95981.72
2023-03-11T03:51:44.924Z,95993.91
2023-03-11T03:56:54.934Z,95996.63
2023-03-11T04:01:57.945Z,95989.75
2023-03-11T04:07:00.957Z,95997.72
2023-03-11T04:12:03.302Z,96017.66
2023-03-11T04:17:10.887Z,96020.78
2023-03-11T04:22:12.960Z,96026.34
2023-03-11T04:27:14.882Z,96049.75
2023-03-11T04:32:16.753Z,96059.06
2023-03-11T04:37:19.953Z,96058.66
2023-03-11T04:42:21.868Z,96056.03
2023-03-11T04:47:24.462Z,96083.75
2023-03-11T04:52:26.430Z,96087.31
2023-03-11T04:57:28.809Z,96086.63
2023-03-11T05:02:32.156Z,96089.78
2023-03-11T05:07:36.948Z,96096.25
2023-03-11T05:12:39.954Z,96098.84
2023-03-11T05:17:42.747Z,96108.22
2023-03-11T05:22:44.787Z,96106.00
2023-03-11T05:27:46.632Z,96115.94
2023-03-11T05:32:50.074Z,96120.44
2023-03-11T05:37:54.749Z,96104.00
2023-03-11T05:42:57.650Z,96130.38
2023-03-11T05:48:00.946Z,96122.75
2023-03-11T05:53:02.700Z,96142.22
2023-03-11T05:58:06.131Z,96146.06
2023-03-11T06:03:09.078Z,96137.75
2023-03-11T06:08:10.721Z,96156.97
2023-03-11T06:13:12.708Z,96147.81
2023-03-11T06:18:26.798Z,96141.97
2023-03-11T06:23:30.056Z,96150.75
2023-03-11T06:28:33.926Z,96157.34
2023-03-11T06:33:35.918Z,96165.19
2023-03-11T06:38:37.696Z,96164.13
2023-03-11T06:43:39.755Z,96175.03
2023-03-11T06:48:42.578Z,96174.09
2023-03-11T06:53:49.239Z,96175.84
2023-03-11T06:58:51.834Z,96183.44
2023-03-11T07:03:53.689Z,96202.53
2023-03-11T07:08:57.392Z,96224.31
2023-03-11T07:13:59.391Z,96214.31
2023-03-11T07:19:04.814Z,96214.09
2023-03-11T07:24:06.792Z,96215.91
2023-03-11T07:29:10.168Z,96227.19
2023-03-11T07:34:12.871Z,96242.91
2023-03-11T07:39:17.766Z,96259.91
2023-03-11T07:44:19.533Z,96249.38
2023-03-11T07:49:21.253Z,96269.69
2023-03-11T07:54:22.935Z,96275.28
2023-03-11T07:59:25.630Z,96298.53
2023-03-11T08:04:27.320Z,96305.44
2023-03-11T08:09:29.397Z,96298.31
2023-03-11T08:14:31.095Z,96298.78
2023-03-11T08:19:32.833Z,96307.09
2023-03-11T08:24:35.690Z,96302.28
2023-03-11T08:29:37.628Z,96306.97
2023-03-11T08:34:40.002Z,96314.78
2023-03-11T08:39:41.856Z,96310.19
2023-03-11T08:44:44.152Z,96319.44
2023-03-11T08:49:45.848Z,96329.81
2023-03-11T08:54:47.606Z,96335.22
2023-03-11T08:59:49.341Z,96339.00
2023-03-11T09:04:51.490Z,96334.78
2023-03-11T09:09:54.667Z,96331.84
2023-03-11T09:14:56.621Z,96336.91
2023-03-11T09:19:58.436Z,96350.03
2023-03-11T09:25:00.152Z,96358.28
2023-03-11T09:30:04.923Z,96351.44
2023-03-11T09:35:06.900Z,96353.72
2023-03-11T09:40:11.760Z,96358.69
2023-03-11T09:45:13.408Z,96365.88
2023-03-11T09:50:24.955Z,96364.03
2023-03-11T09:55:39.699Z,96367.81
2023-03-11T10:00:42.024Z,96367.69
2023-03-11T10:05:46.057Z,96367.59
2023-03-11T10:10:54.213Z,96370.97
2023-03-11T10:16:23.580Z,96372.53
2023-03-11T10:21:59.451Z,96376.97
2023-03-11T10:27:14.377Z,96374.16
2023-03-11T10:32:34.099Z,96372.16
2023-03-11T10:37:49.867Z,96375.19
2023-03-11T10:42:54.173Z,96373.00
2023-03-11T10:47:57.916Z,96387.28
2023-03-11T10:53:10.026Z,96383.84
2023-03-11T10:58:14.587Z,96382.28
2023-03-11T11:03:21.720Z,96391.84
2023-03-11T11:08:23.806Z,96384.69
2023-03-11T11:13:30.090Z,96387.63
2023-03-11T11:18:42.416Z,96381.72
2023-03-11T11:23:48.731Z,96386.16
2023-03-11T11:29:09.511Z,96389.50
2023-03-11T11:34:26.821Z,96403.03
2023-03-11T11:39:33.060Z,96381.03
2023-03-11T11:44:35.020Z,96387.91
2023-03-11T11:49:38.020Z,96388.72
2023-03-11T11:54:48.940Z,96377.00
2023-03-11T11:59:50.772Z,96373.13
2023-03-11T12:04:56.181Z,96370.66
2023-03-11T12:10:22.875Z,96370.28
2023-03-11T12:15:33.723Z,96377.78
2023-03-11T12:20:42.414Z,96388.09
2023-03-11T12:25:59.094Z,96378.97
2023-03-11T12:31:04.840Z,96388.28
2023-03-11T12:36:10.233Z,96380.66
2023-03-11T12:41:15.042Z,96376.75
2023-03-11T12:46:17.912Z,96375.59
2023-03-11T12:51:33.739Z,96353.75
2023-03-11T12:56:50.364Z,96359.63
2023-03-11T13:01:58.275Z,96365.03
2023-03-11T13:07:18.999Z,96357.22
2023-03-11T13:12:42.944Z,96363.84
2023-03-11T13:18:02.185Z,96362.91
2023-03-11T13:23:12.942Z,96378.16
2023-03-11T13:28:29.803Z,96386.50
2023-03-11T13:33:53.128Z,96392.50
2023-03-11T13:39:10.557Z,96390.63
2023-03-11T13:44:37.194Z,96374.13
2023-03-11T13:50:00.127Z,96390.91
2023-03-11T13:55:14.170Z,96399.91
2023-03-11T14:00:18.511Z,96393.44
2023-03-11T14:05:27.628Z,96399.91
2023-03-11T14:10:30.991Z,96399.84
2023-03-11T14:15:43.737Z,96409.69
2023-03-11T14:20:48.230Z,96418.63
2023-03-11T14:25:58.401Z,96405.09
2023-03-11T14:31:02.093Z,96415.22
2023-03-11T14:36:11.509Z,96419.53
2023-03-11T14:41:17.302Z,96420.41
2023-03-11T14:46:27.280Z,96433.22
2023-03-11T14:51:34.077Z,96432.13
2023-03-11T14:56:41.672Z,96421.78
2023-03-11T15:01:47.678Z,96446.19
2023-03-11T15:06:50.503Z,96431.06
2023-03-11T15:11:58.383Z,96431.13
2023-03-11T15:17:41.296Z,96432.00
2023-03-11T15:22:45.788Z,96433.72
2023-03-11T15:27:47.605Z,96447.38
2023-03-11T15:32:50.082Z,96445.69
2023-03-11T15:38:25.239Z,96451.34
2023-03-11T15:43:30.751Z,96448.94
2023-03-11T15:48:32.525Z,96458.97
2023-03-11T15:53:34.244Z,96467.31
2023-03-11T15:58:38.180Z,96471.03
2023-03-11T16:03:40.118Z,96470.53
2023-03-11T16:08:44.454Z,96463.41
2023-03-11T16:13:55.153Z,96470.13
2023-03-11T16:18:57.090Z,96473.75
2023-03-11T16:23:59.187Z,96456.31
2023-03-11T16:29:12.664Z,96455.44
2023-03-11T16:34:21.114Z,96461.56
2023-03-11T16:39:22.791Z,96458.63
2023-03-11T16:44:24.675Z,96478.16
2023-03-11T16:49:26.486Z,96502.41
2023-03-11T16:54:28.190Z,96530.44
2023-03-11T16:59:30.201Z,96541.09
2023-03-11T17:04:31.989Z,96560.50
2023-03-11T17:09:35.490Z,96587.59
2023-03-11T17:14:39.008Z,96576.56
2023-03-11T17:19:40.803Z,96538.63
2023-03-11T17:24:42.889Z,96546.84
2023-03-11T17:29:44.748Z,96543.56
2023-03-11T17:34:46.497Z,96548.59
2023-03-11T17:39:48.631Z,96564.09
2023-03-11T17:44:55.887Z,96577.66
2023-03-11T17:49:57.747Z,96564.09
2023-03-11T17:54:59.638Z,96577.72
2023-03-11T18:00:05.617Z,96592.72
2023-03-11T18:05:11.165Z,96593.09
2023-03-11T18:10:14.387Z,96603.09
2023-03-11T18:15:19.164Z,96598.16
2023-03-11T18:20:21.250Z,96612.19
2023-03-11T18:25:22.934Z,96619.03
2023-03-11T18:30:24.761Z,96626.69
2023-03-11T18:35:26.509Z,96615.38
2023-03-11T18:40:28.364Z,96624.81
2023-03-11T18:45:30.247Z,96629.47
2023-03-11T18:50:32.303Z,96627.16
2023-03-11T18:55:35.293Z,96643.50
2023-03-11T19:00:36.947Z,96632.91
2023-03-11T19:05:39.660Z,96642.56
2023-03-11T19:10:42.879Z,96642.81
2023-03-11T19:15:45.041Z,96644.09
2023-03-11T19:20:56.491Z,96642.81
2023-03-11T19:26:03.679Z,96646.94
2023-03-11T19:31:05.870Z,96644.47
2023-03-11T19:36:08.874Z,96658.69
2023-03-11T19:41:18.505Z,96662.09
2023-03-11T19:46:22.253Z,96667.97
2023-03-11T19:51:26.649Z,96681.13
2023-03-11T19:56:31.405Z,96685.59
2023-03-11T20:01:33.161Z,96675.84
2023-03-11T20:06:35.230Z,96679.72
2023-03-11T20:11:39.975Z,96693.31
2023-03-11T20:16:41.926Z,96689.19
2023-03-11T20:21:45.789Z,96700.06
2023-03-11T20:26:50.060Z,96710.41
2023-03-11T20:31:53.102Z,96704.00
2023-03-11T20:36:55.414Z,96709.00
2023-03-11T20:41:57.303Z,96710.06
2023-03-11T20:46:59.366Z,96711.56
2023-03-11T20:52:02.933Z,96715.91
2023-03-11T20:57:04.955Z,96720.19
2023-03-11T21:02:07.199Z,96726.97
2023-03-11T21:07:09.011Z,96730.47
2023-03-11T21:12:10.990Z,96732.03
2023-03-11T21:17:12.975Z,96741.00
2023-03-11T21:22:14.861Z,96736.81
2023-03-11T21:27:16.786Z,96737.75
2023-03-11T21:32:19.041Z,96736.28
2023-03-11T21:37:20.808Z,96733.19
2023-03-11T21:42:22.544Z,96744.19
2023-03-11T21:47:24.387Z,96749.56
2023-03-11T21:52:26.697Z,96748.03
2023-03-11T21:57:28.511Z,96754.47
2023-03-11T22:02:30.228Z,96753.78
2023-03-11T22:07:32.125Z,96747.94
2023-03-11T22:12:34.234Z,96759.53
2023-03-11T22:17:36.371Z,96754.56
2023-03-11T22:22:38.360Z,96761.72
2023-03-11T22:27:40.350Z,96763.66
2023-03-11T22:32:42.148Z,96762.56
2023-03-11T22:37:43.953Z,96759.69
2023-03-11T22:42:45.676Z,96754.88
2023-03-11T22:47:47.891Z,96761.53
2023-03-11T22:52:49.742Z,96762.75
2023-03-11T22:57:51.483Z,96768.16
2023-03-11T23:02:55.629Z,96760.69
2023-03-11T23:07:57.404Z,96764.25
2023-03-11T23:12:59.161Z,96781.19
2023-03-11T23:18:00.857Z,96797.34
2023-03-11T23:23:03.527Z,96796.31
2023-03-11T23:28:05.774Z,96794.84
2023-03-11T23:33:07.482Z,96802.31
2023-03-11T23:38:09.319Z,96790.69
2023-03-11T23:43:11.206Z,96785.75
2023-03-11T23:48:12.963Z,96778.59
2023-03-11T23:53:15.881Z,96782.75
2023-03-11T23:58:18.814Z,96780.06
